sensor_id;sensor_type;location;lat;lon;timestamp;P1;durP1;ratioP1;P2;durP2;ratioP2
17596;SDS011;8917;50.942;6.946;2023-08-08T00:00:56;5.23;;;1.90;;
17596;SDS011;8917;50.942;6.946;2023-08-08T00:03:25;1.47;;;1.37;;
17596;SDS011;8917;50.942;6.946;2023-08-08T00:05:52;2.77;;;1.67;;
17596;SDS011;8917;50.942;6.946;2023-08-08T00:08:20;4.50;;;1.53;;
17596;SDS011;8917;50.942;6.946;2023-08-08T00:10:47;2.40;;;1.77;;
17596;SDS011;8917;50.942;6.946;2023-08-08T00:13:14;4.17;;;2.00;;
17596;SDS011;8917;50.942;6.946;2023-08-08T00:15:41;2.57;;;1.83;;
17596;SDS011;8917;50.942;6.946;2023-08-08T00:18:09;3.07;;;2.00;;
17596;SDS011;8917;50.942;6.946;2023-08-08T00:20:37;3.00;;;1.97;;
17596;SDS011;8917;50.942;6.946;2023-08-08T00:23:05;1.87;;;1.77;;
17596;SDS011;8917;50.942;6.946;2023-08-08T00:25:32;3.43;;;2.10;;
17596;SDS011;8917;50.942;6.946;2023-08-08T00:27:59;2.70;;;2.03;;
17596;SDS011;8917;50.942;6.946;2023-08-08T00:30:26;3.23;;;2.70;;
17596;SDS011;8917;50.942;6.946;2023-08-08T00:32:53;3.10;;;2.10;;
17596;SDS011;8917;50.942;6.946;2023-08-08T00:35:21;3.07;;;1.87;;
17596;SDS011;8917;50.942;6.946;2023-08-08T00:37:49;4.30;;;2.57;;
17596;SDS011;8917;50.942;6.946;2023-08-08T00:40:17;2.77;;;2.07;;
17596;SDS011;8917;50.942;6.946;2023-08-08T00:42:44;3.17;;;2.10;;
17596;SDS011;8917;50.942;6.946;2023-08-08T00:45:11;4.60;;;2.17;;
17596;SDS011;8917;50.942;6.946;2023-08-08T00:47:38;3.83;;;2.20;;
17596;SDS011;8917;50.942;6.946;2023-08-08T00:50:06;3.20;;;2.47;;
17596;SDS011;8917;50.942;6.946;2023-08-08T00:52:33;2.83;;;2.20;;
17596;SDS011;8917;50.942;6.946;2023-08-08T00:55:02;3.10;;;2.20;;
17596;SDS011;8917;50.942;6.946;2023-08-08T00:57:30;2.80;;;2.20;;
17596;SDS011;8917;50.942;6.946;2023-08-08T00:59:57;2.90;;;1.97;;
17596;SDS011;8917;50.942;6.946;2023-08-08T01:02:24;4.10;;;2.23;;
17596;SDS011;8917;50.942;6.946;2023-08-08T01:04:54;4.03;;;2.27;;
17596;SDS011;8917;50.942;6.946;2023-08-08T01:07:25;2.87;;;1.80;;
17596;SDS011;8917;50.942;6.946;2023-08-08T01:09:55;2.43;;;2.23;;
17596;SDS011;8917;50.942;6.946;2023-08-08T01:12:28;3.63;;;2.40;;
17596;SDS011;8917;50.942;6.946;2023-08-08T01:14:55;2.63;;;2.30;;
17596;SDS011;8917;50.942;6.946;2023-08-08T01:17:23;4.77;;;2.20;;
17596;SDS011;8917;50.942;6.946;2023-08-08T01:19:51;2.80;;;2.23;;
17596;SDS011;8917;50.942;6.946;2023-08-08T01:22:22;2.43;;;2.10;;
17596;SDS011;8917;50.942;6.946;2023-08-08T01:24:52;4.13;;;1.90;;
17596;SDS011;8917;50.942;6.946;2023-08-08T01:27:20;4.00;;;2.13;;
17596;SDS011;8917;50.942;6.946;2023-08-08T01:29:47;2.80;;;2.50;;
17596;SDS011;8917;50.942;6.946;2023-08-08T01:32:14;3.17;;;2.00;;
17596;SDS011;8917;50.942;6.946;2023-08-08T01:34:41;3.10;;;2.03;;
17596;SDS011;8917;50.942;6.946;2023-08-08T01:37:10;2.43;;;2.00;;
17596;SDS011;8917;50.942;6.946;2023-08-08T01:39:38;4.60;;;2.33;;
17596;SDS011;8917;50.942;6.946;2023-08-08T01:42:07;4.60;;;2.13;;
17596;SDS011;8917;50.942;6.946;2023-08-08T01:44:34;4.27;;;2.10;;
17596;SDS011;8917;50.942;6.946;2023-08-08T01:47:04;2.53;;;2.30;;
17596;SDS011;8917;50.942;6.946;2023-08-08T01:49:32;2.30;;;2.07;;
17596;SDS011;8917;50.942;6.946;2023-08-08T01:52:00;3.40;;;2.13;;
17596;SDS011;8917;50.942;6.946;2023-08-08T01:54:27;4.17;;;1.90;;
17596;SDS011;8917;50.942;6.946;2023-08-08T01:56:54;4.73;;;2.30;;
17596;SDS011;8917;50.942;6.946;2023-08-08T01:59:23;4.03;;;1.80;;
17596;SDS011;8917;50.942;6.946;2023-08-08T02:01:50;2.43;;;1.93;;
17596;SDS011;8917;50.942;6.946;2023-08-08T02:04:17;4.37;;;2.00;;
17596;SDS011;8917;50.942;6.946;2023-08-08T02:06:44;2.03;;;1.83;;
17596;SDS011;8917;50.942;6.946;2023-08-08T02:09:11;3.17;;;2.00;;
17596;SDS011;8917;50.942;6.946;2023-08-08T02:11:40;2.47;;;2.07;;
17596;SDS011;8917;50.942;6.946;2023-08-08T02:14:07;2.47;;;1.97;;
17596;SDS011;8917;50.942;6.946;2023-08-08T02:16:35;2.87;;;1.80;;
17596;SDS011;8917;50.942;6.946;2023-08-08T02:19:04;2.80;;;1.90;;
17596;SDS011;8917;50.942;6.946;2023-08-08T02:21:31;2.57;;;2.00;;
17596;SDS011;8917;50.942;6.946;2023-08-08T02:23:58;2.80;;;1.67;;
17596;SDS011;8917;50.942;6.946;2023-08-08T02:26:26;3.30;;;1.90;;
17596;SDS011;8917;50.942;6.946;2023-08-08T02:28:53;2.80;;;1.60;;
17596;SDS011;8917;50.942;6.946;2023-08-08T02:31:20;1.90;;;1.70;;
17596;SDS011;8917;50.942;6.946;2023-08-08T02:33:49;2.37;;;1.70;;
17596;SDS011;8917;50.942;6.946;2023-08-08T02:36:17;3.90;;;2.07;;
17596;SDS011;8917;50.942;6.946;2023-08-08T02:38:44;1.97;;;1.87;;
17596;SDS011;8917;50.942;6.946;2023-08-08T02:41:11;4.43;;;2.20;;
17596;SDS011;8917;50.942;6.946;2023-08-08T02:43:38;3.63;;;2.13;;
17596;SDS011;8917;50.942;6.946;2023-08-08T02:46:06;4.40;;;1.90;;
17596;SDS011;8917;50.942;6.946;2023-08-08T02:48:33;3.63;;;1.90;;
17596;SDS011;8917;50.942;6.946;2023-08-08T02:51:01;3.47;;;1.97;;
17596;SDS011;8917;50.942;6.946;2023-08-08T02:53:29;4.73;;;2.10;;
17596;SDS011;8917;50.942;6.946;2023-08-08T02:55:56;3.43;;;2.20;;
17596;SDS011;8917;50.942;6.946;2023-08-08T02:58:23;3.30;;;2.27;;
17596;SDS011;8917;50.942;6.946;2023-08-08T03:00:50;2.87;;;1.60;;
17596;SDS011;8917;50.942;6.946;2023-08-08T03:03:17;3.27;;;2.07;;
17596;SDS011;8917;50.942;6.946;2023-08-08T03:05:45;3.53;;;2.20;;
17596;SDS011;8917;50.942;6.946;2023-08-08T03:08:13;3.60;;;2.00;;
17596;SDS011;8917;50.942;6.946;2023-08-08T03:10:40;2.60;;;1.77;;
17596;SDS011;8917;50.942;6.946;2023-08-08T03:13:08;4.37;;;1.90;;
17596;SDS011;8917;50.942;6.946;2023-08-08T03:15:35;2.97;;;1.80;;
17596;SDS011;8917;50.942;6.946;2023-08-08T03:18:02;3.73;;;1.90;;
17596;SDS011;8917;50.942;6.946;2023-08-08T03:20:29;3.67;;;1.97;;
17596;SDS011;8917;50.942;6.946;2023-08-08T03:22:57;3.87;;;1.60;;
17596;SDS011;8917;50.942;6.946;2023-08-08T03:25:25;3.30;;;1.83;;
17596;SDS011;8917;50.942;6.946;2023-08-08T03:27:52;2.87;;;1.80;;
17596;SDS011;8917;50.942;6.946;2023-08-08T03:30:20;1.97;;;1.67;;
17596;SDS011;8917;50.942;6.946;2023-08-08T03:32:47;3.17;;;1.80;;
17596;SDS011;8917;50.942;6.946;2023-08-08T03:35:14;1.90;;;1.60;;
17596;SDS011;8917;50.942;6.946;2023-08-08T03:37:41;3.07;;;1.50;;
17596;SDS011;8917;50.942;6.946;2023-08-08T03:40:09;1.87;;;1.70;;
17596;SDS011;8917;50.942;6.946;2023-08-08T03:42:38;3.17;;;1.83;;
17596;SDS011;8917;50.942;6.946;2023-08-08T03:45:06;2.93;;;2.00;;
17596;SDS011;8917;50.942;6.946;2023-08-08T03:47:33;3.23;;;1.67;;
17596;SDS011;8917;50.942;6.946;2023-08-08T03:50:00;3.70;;;1.90;;
17596;SDS011;8917;50.942;6.946;2023-08-08T03:52:28;3.33;;;2.00;;
17596;SDS011;8917;50.942;6.946;2023-08-08T03:54:55;5.00;;;1.80;;
17596;SDS011;8917;50.942;6.946;2023-08-08T03:57:22;1.90;;;1.70;;
17596;SDS011;8917;50.942;6.946;2023-08-08T03:59:50;3.07;;;2.33;;
17596;SDS011;8917;50.942;6.946;2023-08-08T04:02:18;3.80;;;2.10;;
17596;SDS011;8917;50.942;6.946;2023-08-08T04:04:45;4.87;;;1.90;;
17596;SDS011;8917;50.942;6.946;2023-08-08T04:07:12;4.47;;;2.20;;
17596;SDS011;8917;50.942;6.946;2023-08-08T04:09:39;4.97;;;2.10;;
17596;SDS011;8917;50.942;6.946;2023-08-08T04:12:07;4.23;;;1.97;;
17596;SDS011;8917;50.942;6.946;2023-08-08T04:14:34;3.37;;;1.70;;
17596;SDS011;8917;50.942;6.946;2023-08-08T04:17:03;4.33;;;2.03;;
17596;SDS011;8917;50.942;6.946;2023-08-08T04:19:30;3.13;;;1.67;;
17596;SDS011;8917;50.942;6.946;2023-08-08T04:21:58;2.47;;;1.90;;
17596;SDS011;8917;50.942;6.946;2023-08-08T04:24:25;5.43;;;2.00;;
17596;SDS011;8917;50.942;6.946;2023-08-08T04:26:52;2.10;;;1.90;;
17596;SDS011;8917;50.942;6.946;2023-08-08T04:29:20;3.93;;;2.00;;
17596;SDS011;8917;50.942;6.946;2023-08-08T04:31:47;4.50;;;2.23;;
17596;SDS011;8917;50.942;6.946;2023-08-08T04:34:15;3.40;;;1.87;;
17596;SDS011;8917;50.942;6.946;2023-08-08T04:36:43;2.97;;;2.03;;
17596;SDS011;8917;50.942;6.946;2023-08-08T04:39:10;5.27;;;2.10;;
17596;SDS011;8917;50.942;6.946;2023-08-08T04:41:37;6.23;;;2.10;;
17596;SDS011;8917;50.942;6.946;2023-08-08T04:44:04;2.47;;;1.97;;
17596;SDS011;8917;50.942;6.946;2023-08-08T04:46:31;3.07;;;2.07;;
17596;SDS011;8917;50.942;6.946;2023-08-08T04:48:59;4.60;;;2.27;;
17596;SDS011;8917;50.942;6.946;2023-08-08T04:51:27;3.97;;;2.40;;
17596;SDS011;8917;50.942;6.946;2023-08-08T04:53:54;6.50;;;2.27;;
17596;SDS011;8917;50.942;6.946;2023-08-08T04:56:21;4.00;;;2.13;;
17596;SDS011;8917;50.942;6.946;2023-08-08T04:58:49;4.53;;;2.40;;
17596;SDS011;8917;50.942;6.946;2023-08-08T05:01:16;4.63;;;2.30;;
17596;SDS011;8917;50.942;6.946;2023-08-08T05:03:45;6.03;;;2.30;;
17596;SDS011;8917;50.942;6.946;2023-08-08T05:06:12;8.80;;;2.80;;
17596;SDS011;8917;50.942;6.946;2023-08-08T05:08:41;6.87;;;2.37;;
17596;SDS011;8917;50.942;6.946;2023-08-08T05:11:08;6.07;;;2.97;;
17596;SDS011;8917;50.942;6.946;2023-08-08T05:13:35;4.13;;;2.23;;
17596;SDS011;8917;50.942;6.946;2023-08-08T05:16:03;5.70;;;2.40;;
17596;SDS011;8917;50.942;6.946;2023-08-08T05:18:31;6.93;;;2.60;;
17596;SDS011;8917;50.942;6.946;2023-08-08T05:20:58;5.90;;;2.97;;
17596;SDS011;8917;50.942;6.946;2023-08-08T05:23:25;6.37;;;2.57;;
17596;SDS011;8917;50.942;6.946;2023-08-08T05:25:54;6.90;;;2.90;;
17596;SDS011;8917;50.942;6.946;2023-08-08T05:28:21;4.73;;;2.50;;
17596;SDS011;8917;50.942;6.946;2023-08-08T05:30:48;6.60;;;2.87;;
17596;SDS011;8917;50.942;6.946;2023-08-08T05:33:15;6.10;;;2.73;;
17596;SDS011;8917;50.942;6.946;2023-08-08T05:35:42;6.47;;;2.43;;
17596;SDS011;8917;50.942;6.946;2023-08-08T05:38:09;7.00;;;2.77;;
17596;SDS011;8917;50.942;6.946;2023-08-08T05:40:37;8.30;;;3.10;;
17596;SDS011;8917;50.942;6.946;2023-08-08T05:43:05;4.10;;;2.40;;
17596;SDS011;8917;50.942;6.946;2023-08-08T05:45:33;9.13;;;2.97;;
17596;SDS011;8917;50.942;6.946;2023-08-08T05:48:00;7.30;;;3.00;;
17596;SDS011;8917;50.942;6.946;2023-08-08T05:50:27;7.30;;;2.70;;
17596;SDS011;8917;50.942;6.946;2023-08-08T05:52:54;9.20;;;3.00;;
17596;SDS011;8917;50.942;6.946;2023-08-08T05:55:22;6.63;;;3.07;;
17596;SDS011;8917;50.942;6.946;2023-08-08T05:57:49;11.03;;;3.67;;
17596;SDS011;8917;50.942;6.946;2023-08-08T06:00:18;6.77;;;3.30;;
17596;SDS011;8917;50.942;6.946;2023-08-08T06:02:45;6.27;;;2.83;;
17596;SDS011;8917;50.942;6.946;2023-08-08T06:05:12;9.37;;;3.20;;
17596;SDS011;8917;50.942;6.946;2023-08-08T06:07:39;6.40;;;2.90;;
17596;SDS011;8917;50.942;6.946;2023-08-08T06:10:07;7.63;;;2.90;;
17596;SDS011;8917;50.942;6.946;2023-08-08T06:12:34;10.67;;;3.60;;
17596;SDS011;8917;50.942;6.946;2023-08-08T06:15:01;9.83;;;3.77;;
17596;SDS011;8917;50.942;6.946;2023-08-08T06:17:30;6.13;;;3.53;;
17596;SDS011;8917;50.942;6.946;2023-08-08T06:19:58;6.10;;;2.83;;
17596;SDS011;8917;50.942;6.946;2023-08-08T06:22:25;7.13;;;3.20;;
17596;SDS011;8917;50.942;6.946;2023-08-08T06:24:52;5.73;;;3.77;;
17596;SDS011;8917;50.942;6.946;2023-08-08T06:27:19;6.57;;;3.10;;
17596;SDS011;8917;50.942;6.946;2023-08-08T06:29:46;9.70;;;3.10;;
17596;SDS011;8917;50.942;6.946;2023-08-08T06:32:14;7.77;;;2.83;;
17596;SDS011;8917;50.942;6.946;2023-08-08T06:34:42;6.17;;;2.53;;
17596;SDS011;8917;50.942;6.946;2023-08-08T06:37:09;7.13;;;2.63;;
17596;SDS011;8917;50.942;6.946;2023-08-08T06:39:37;8.73;;;2.63;;
17596;SDS011;8917;50.942;6.946;2023-08-08T06:42:05;6.37;;;2.50;;
17596;SDS011;8917;50.942;6.946;2023-08-08T06:44:32;7.47;;;2.63;;
17596;SDS011;8917;50.942;6.946;2023-08-08T06:46:59;9.23;;;3.00;;
17596;SDS011;8917;50.942;6.946;2023-08-08T06:49:27;6.37;;;2.50;;
17596;SDS011;8917;50.942;6.946;2023-08-08T06:51:56;5.40;;;2.87;;
17596;SDS011;8917;50.942;6.946;2023-08-08T06:54:23;7.53;;;3.17;;
17596;SDS011;8917;50.942;6.946;2023-08-08T06:56:50;7.90;;;3.27;;
17596;SDS011;8917;50.942;6.946;2023-08-08T06:59:17;8.13;;;3.07;;
17596;SDS011;8917;50.942;6.946;2023-08-08T07:01:44;12.17;;;3.20;;
17596;SDS011;8917;50.942;6.946;2023-08-08T07:04:12;5.47;;;2.60;;
17596;SDS011;8917;50.942;6.946;2023-08-08T07:06:39;6.77;;;3.07;;
17596;SDS011;8917;50.942;6.946;2023-08-08T07:09:07;6.80;;;2.50;;
17596;SDS011;8917;50.942;6.946;2023-08-08T07:11:35;6.20;;;3.00;;
17596;SDS011;8917;50.942;6.946;2023-08-08T07:14:03;9.83;;;3.20;;
17596;SDS011;8917;50.942;6.946;2023-08-08T07:16:30;11.27;;;3.90;;
17596;SDS011;8917;50.942;6.946;2023-08-08T07:18:57;6.00;;;2.87;;
17596;SDS011;8917;50.942;6.946;2023-08-08T07:21:24;7.63;;;3.27;;
17596;SDS011;8917;50.942;6.946;2023-08-08T07:23:51;7.27;;;3.23;;
17596;SDS011;8917;50.942;6.946;2023-08-08T07:26:20;7.07;;;2.80;;
17596;SDS011;8917;50.942;6.946;2023-08-08T07:28:48;7.10;;;2.67;;
17596;SDS011;8917;50.942;6.946;2023-08-08T07:31:15;6.40;;;3.13;;
17596;SDS011;8917;50.942;6.946;2023-08-08T07:33:42;7.43;;;2.23;;
17596;SDS011;8917;50.942;6.946;2023-08-08T07:36:09;8.20;;;3.00;;
17596;SDS011;8917;50.942;6.946;2023-08-08T07:38:36;9.60;;;3.13;;
17596;SDS011;8917;50.942;6.946;2023-08-08T07:41:03;6.47;;;3.10;;
17596;SDS011;8917;50.942;6.946;2023-08-08T07:43:32;9.17;;;3.23;;
17596;SDS011;8917;50.942;6.946;2023-08-08T07:45:59;6.97;;;3.23;;
17596;SDS011;8917;50.942;6.946;2023-08-08T07:48:27;5.00;;;2.97;;
17596;SDS011;8917;50.942;6.946;2023-08-08T07:50:54;8.60;;;3.17;;
17596;SDS011;8917;50.942;6.946;2023-08-08T07:53:21;3.80;;;2.47;;
17596;SDS011;8917;50.942;6.946;2023-08-08T07:55:48;8.30;;;3.60;;
17596;SDS011;8917;50.942;6.946;2023-08-08T07:58:16;8.53;;;3.63;;
17596;SDS011;8917;50.942;6.946;2023-08-08T08:00:44;9.97;;;4.00;;
17596;SDS011;8917;50.942;6.946;2023-08-08T08:03:11;7.63;;;3.20;;
17596;SDS011;8917;50.942;6.946;2023-08-08T08:05:39;9.23;;;3.60;;
17596;SDS011;8917;50.942;6.946;2023-08-08T08:08:06;8.40;;;3.20;;
17596;SDS011;8917;50.942;6.946;2023-08-08T08:10:33;8.70;;;3.67;;
17596;SDS011;8917;50.942;6.946;2023-08-08T08:13:00;4.90;;;2.80;;
17596;SDS011;8917;50.942;6.946;2023-08-08T08:15:28;8.57;;;3.50;;
17596;SDS011;8917;50.942;6.946;2023-08-08T08:17:57;9.87;;;3.27;;
17596;SDS011;8917;50.942;6.946;2023-08-08T08:20:24;12.33;;;3.30;;
17596;SDS011;8917;50.942;6.946;2023-08-08T08:22:51;13.23;;;4.03;;
17596;SDS011;8917;50.942;6.946;2023-08-08T08:25:18;13.00;;;4.37;;
17596;SDS011;8917;50.942;6.946;2023-08-08T08:27:46;6.83;;;3.50;;
17596;SDS011;8917;50.942;6.946;2023-08-08T08:30:13;12.10;;;4.00;;
17596;SDS011;8917;50.942;6.946;2023-08-08T08:32:41;6.97;;;3.67;;
17596;SDS011;8917;50.942;6.946;2023-08-08T08:35:09;7.73;;;3.53;;
17596;SDS011;8917;50.942;6.946;2023-08-08T08:37:38;9.27;;;3.80;;
17596;SDS011;8917;50.942;6.946;2023-08-08T08:40:06;8.60;;;4.10;;
17596;SDS011;8917;50.942;6.946;2023-08-08T08:42:34;8.87;;;4.80;;
17596;SDS011;8917;50.942;6.946;2023-08-08T08:45:02;5.20;;;3.27;;
17596;SDS011;8917;50.942;6.946;2023-08-08T08:47:30;8.77;;;4.80;;
17596;SDS011;8917;50.942;6.946;2023-08-08T08:49:57;9.17;;;3.50;;
17596;SDS011;8917;50.942;6.946;2023-08-08T08:52:27;10.93;;;3.53;;
17596;SDS011;8917;50.942;6.946;2023-08-08T08:54:54;7.43;;;4.30;;
17596;SDS011;8917;50.942;6.946;2023-08-08T08:57:22;7.60;;;4.03;;
17596;SDS011;8917;50.942;6.946;2023-08-08T08:59:49;10.80;;;4.37;;
17596;SDS011;8917;50.942;6.946;2023-08-08T09:02:17;10.87;;;4.07;;
17596;SDS011;8917;50.942;6.946;2023-08-08T09:04:45;4.83;;;3.30;;
17596;SDS011;8917;50.942;6.946;2023-08-08T09:07:12;8.63;;;3.67;;
17596;SDS011;8917;50.942;6.946;2023-08-08T09:09:42;7.33;;;3.87;;
17596;SDS011;8917;50.942;6.946;2023-08-08T09:12:09;11.63;;;4.50;;
17596;SDS011;8917;50.942;6.946;2023-08-08T09:14:39;5.53;;;3.77;;
17596;SDS011;8917;50.942;6.946;2023-08-08T09:17:10;8.33;;;3.50;;
17596;SDS011;8917;50.942;6.946;2023-08-08T09:19:38;7.87;;;3.43;;
17596;SDS011;8917;50.942;6.946;2023-08-08T09:22:05;8.67;;;3.93;;
17596;SDS011;8917;50.942;6.946;2023-08-08T09:24:32;6.47;;;3.83;;
17596;SDS011;8917;50.942;6.946;2023-08-08T09:27:01;8.10;;;3.40;;
17596;SDS011;8917;50.942;6.946;2023-08-08T09:29:29;9.67;;;4.23;;
17596;SDS011;8917;50.942;6.946;2023-08-08T09:31:56;5.07;;;3.20;;
17596;SDS011;8917;50.942;6.946;2023-08-08T09:34:24;5.93;;;3.40;;
17596;SDS011;8917;50.942;6.946;2023-08-08T09:36:51;11.03;;;4.43;;
17596;SDS011;8917;50.942;6.946;2023-08-08T09:39:19;7.17;;;3.30;;
17596;SDS011;8917;50.942;6.946;2023-08-08T09:41:46;7.00;;;3.20;;
17596;SDS011;8917;50.942;6.946;2023-08-08T09:44:15;7.70;;;3.60;;
17596;SDS011;8917;50.942;6.946;2023-08-08T09:46:42;6.20;;;3.00;;
17596;SDS011;8917;50.942;6.946;2023-08-08T09:49:09;6.20;;;3.33;;
17596;SDS011;8917;50.942;6.946;2023-08-08T09:51:37;9.43;;;3.33;;
17596;SDS011;8917;50.942;6.946;2023-08-08T09:54:04;6.37;;;3.10;;
17596;SDS011;8917;50.942;6.946;2023-08-08T09:56:32;10.20;;;3.40;;
17596;SDS011;8917;50.942;6.946;2023-08-08T09:59:00;8.90;;;3.70;;
17596;SDS011;8917;50.942;6.946;2023-08-08T10:01:29;9.60;;;3.60;;
17596;SDS011;8917;50.942;6.946;2023-08-08T10:03:58;6.47;;;3.87;;
17596;SDS011;8917;50.942;6.946;2023-08-08T10:06:25;4.23;;;2.70;;
17596;SDS011;8917;50.942;6.946;2023-08-08T10:08:53;9.43;;;3.60;;
17596;SDS011;8917;50.942;6.946;2023-08-08T10:11:20;9.47;;;3.20;;
17596;SDS011;8917;50.942;6.946;2023-08-08T10:13:50;9.73;;;3.27;;
17596;SDS011;8917;50.942;6.946;2023-08-08T10:16:17;7.70;;;3.23;;
17596;SDS011;8917;50.942;6.946;2023-08-08T10:18:46;10.10;;;3.67;;
17596;SDS011;8917;50.942;6.946;2023-08-08T10:21:22;14.13;;;4.50;;
17596;SDS011;8917;50.942;6.946;2023-08-08T10:24:00;7.70;;;3.10;;
17596;SDS011;8917;50.942;6.946;2023-08-08T10:26:27;5.87;;;2.60;;
17596;SDS011;8917;50.942;6.946;2023-08-08T10:28:55;4.10;;;2.80;;
17596;SDS011;8917;50.942;6.946;2023-08-08T10:31:22;5.27;;;3.60;;
17596;SDS011;8917;50.942;6.946;2023-08-08T10:34:00;6.40;;;3.27;;
17596;SDS011;8917;50.942;6.946;2023-08-08T10:36:42;5.87;;;3.20;;
17596;SDS011;8917;50.942;6.946;2023-08-08T10:39:10;6.03;;;3.03;;
17596;SDS011;8917;50.942;6.946;2023-08-08T10:41:43;7.07;;;2.60;;
17596;SDS011;8917;50.942;6.946;2023-08-08T10:44:11;5.00;;;2.70;;
17596;SDS011;8917;50.942;6.946;2023-08-08T10:46:40;5.33;;;3.03;;
17596;SDS011;8917;50.942;6.946;2023-08-08T10:49:10;8.07;;;2.90;;
17596;SDS011;8917;50.942;6.946;2023-08-08T10:51:40;5.20;;;2.60;;
17596;SDS011;8917;50.942;6.946;2023-08-08T10:54:11;5.50;;;2.57;;
17596;SDS011;8917;50.942;6.946;2023-08-08T10:56:39;5.43;;;2.70;;
17596;SDS011;8917;50.942;6.946;2023-08-08T10:59:13;5.53;;;2.80;;
17596;SDS011;8917;50.942;6.946;2023-08-08T11:01:41;6.53;;;2.23;;
17596;SDS011;8917;50.942;6.946;2023-08-08T11:04:11;7.90;;;2.93;;
17596;SDS011;8917;50.942;6.946;2023-08-08T11:06:39;6.83;;;3.07;;
17596;SDS011;8917;50.942;6.946;2023-08-08T11:09:06;5.57;;;2.50;;
17596;SDS011;8917;50.942;6.946;2023-08-08T11:11:35;4.07;;;2.30;;
17596;SDS011;8917;50.942;6.946;2023-08-08T11:14:08;5.77;;;2.77;;
17596;SDS011;8917;50.942;6.946;2023-08-08T11:16:35;5.03;;;2.37;;
17596;SDS011;8917;50.942;6.946;2023-08-08T11:19:03;5.87;;;2.93;;
17596;SDS011;8917;50.942;6.946;2023-08-08T11:21:34;6.33;;;2.70;;
17596;SDS011;8917;50.942;6.946;2023-08-08T11:24:02;3.87;;;2.20;;
17596;SDS011;8917;50.942;6.946;2023-08-08T11:26:29;5.53;;;2.47;;
17596;SDS011;8917;50.942;6.946;2023-08-08T11:28:58;5.43;;;2.73;;
17596;SDS011;8917;50.942;6.946;2023-08-08T11:31:26;5.13;;;2.20;;
17596;SDS011;8917;50.942;6.946;2023-08-08T11:33:53;3.83;;;2.13;;
17596;SDS011;8917;50.942;6.946;2023-08-08T11:36:21;5.27;;;2.53;;
17596;SDS011;8917;50.942;6.946;2023-08-08T11:38:50;3.23;;;2.47;;
17596;SDS011;8917;50.942;6.946;2023-08-08T11:41:20;7.23;;;2.70;;
17596;SDS011;8917;50.942;6.946;2023-08-08T11:43:48;6.30;;;2.60;;
17596;SDS011;8917;50.942;6.946;2023-08-08T11:46:17;8.30;;;2.70;;
17596;SDS011;8917;50.942;6.946;2023-08-08T11:48:46;4.37;;;2.20;;
17596;SDS011;8917;50.942;6.946;2023-08-08T11:51:14;5.53;;;2.20;;
17596;SDS011;8917;50.942;6.946;2023-08-08T11:53:48;5.47;;;2.27;;
17596;SDS011;8917;50.942;6.946;2023-08-08T11:56:17;9.00;;;2.17;;
17596;SDS011;8917;50.942;6.946;2023-08-08T11:58:44;8.73;;;2.43;;
17596;SDS011;8917;50.942;6.946;2023-08-08T12:01:12;4.77;;;2.20;;
17596;SDS011;8917;50.942;6.946;2023-08-08T12:03:40;3.50;;;2.10;;
17596;SDS011;8917;50.942;6.946;2023-08-08T12:06:13;6.60;;;2.50;;
17596;SDS011;8917;50.942;6.946;2023-08-08T12:08:41;10.43;;;2.90;;
17596;SDS011;8917;50.942;6.946;2023-08-08T12:11:09;5.47;;;2.30;;
17596;SDS011;8917;50.942;6.946;2023-08-08T12:13:38;8.53;;;3.13;;
17596;SDS011;8917;50.942;6.946;2023-08-08T12:16:06;3.90;;;2.20;;
17596;SDS011;8917;50.942;6.946;2023-08-08T12:18:33;5.23;;;2.10;;
17596;SDS011;8917;50.942;6.946;2023-08-08T12:21:02;5.83;;;2.23;;
17596;SDS011;8917;50.942;6.946;2023-08-08T12:23:28;5.17;;;2.03;;
17596;SDS011;8917;50.942;6.946;2023-08-08T12:25:56;6.60;;;2.30;;
17596;SDS011;8917;50.942;6.946;2023-08-08T12:28:24;6.10;;;2.20;;
17596;SDS011;8917;50.942;6.946;2023-08-08T12:30:52;5.33;;;1.97;;
17596;SDS011;8917;50.942;6.946;2023-08-08T12:33:20;6.53;;;2.13;;
17596;SDS011;8917;50.942;6.946;2023-08-08T12:35:47;5.50;;;2.27;;
17596;SDS011;8917;50.942;6.946;2023-08-08T12:38:14;5.53;;;2.27;;
17596;SDS011;8917;50.942;6.946;2023-08-08T12:40:41;4.97;;;2.13;;
17596;SDS011;8917;50.942;6.946;2023-08-08T12:43:09;4.53;;;2.30;;
17596;SDS011;8917;50.942;6.946;2023-08-08T12:45:38;3.83;;;1.90;;
17596;SDS011;8917;50.942;6.946;2023-08-08T12:48:07;3.43;;;2.10;;
17596;SDS011;8917;50.942;6.946;2023-08-08T12:50:34;4.90;;;2.10;;
17596;SDS011;8917;50.942;6.946;2023-08-08T12:53:01;8.87;;;2.23;;
17596;SDS011;8917;50.942;6.946;2023-08-08T12:55:29;7.53;;;2.10;;
17596;SDS011;8917;50.942;6.946;2023-08-08T12:57:56;6.00;;;2.23;;
17596;SDS011;8917;50.942;6.946;2023-08-08T13:00:23;6.23;;;2.60;;
17596;SDS011;8917;50.942;6.946;2023-08-08T13:02:51;4.73;;;2.20;;
17596;SDS011;8917;50.942;6.946;2023-08-08T13:05:19;3.60;;;2.20;;
17596;SDS011;8917;50.942;6.946;2023-08-08T13:07:47;8.73;;;3.00;;
17596;SDS011;8917;50.942;6.946;2023-08-08T13:10:14;8.17;;;3.80;;
17596;SDS011;8917;50.942;6.946;2023-08-08T13:12:41;9.03;;;3.47;;
17596;SDS011;8917;50.942;6.946;2023-08-08T13:15:09;6.53;;;3.10;;
17596;SDS011;8917;50.942;6.946;2023-08-08T13:17:36;6.03;;;2.87;;
17596;SDS011;8917;50.942;6.946;2023-08-08T13:20:04;9.00;;;2.50;;
17596;SDS011;8917;50.942;6.946;2023-08-08T13:22:34;8.60;;;2.63;;
17596;SDS011;8917;50.942;6.946;2023-08-08T13:25:01;7.30;;;2.40;;
17596;SDS011;8917;50.942;6.946;2023-08-08T13:27:29;8.80;;;2.80;;
17596;SDS011;8917;50.942;6.946;2023-08-08T13:29:57;3.57;;;2.50;;
17596;SDS011;8917;50.942;6.946;2023-08-08T13:32:24;5.10;;;2.57;;
17596;SDS011;8917;50.942;6.946;2023-08-08T13:34:51;5.37;;;2.13;;
17596;SDS011;8917;50.942;6.946;2023-08-08T13:37:19;5.03;;;2.00;;
17596;SDS011;8917;50.942;6.946;2023-08-08T13:39:47;5.13;;;2.07;;
17596;SDS011;8917;50.942;6.946;2023-08-08T13:42:14;5.03;;;1.80;;
17596;SDS011;8917;50.942;6.946;2023-08-08T13:44:41;6.40;;;2.00;;
17596;SDS011;8917;50.942;6.946;2023-08-08T13:47:09;5.53;;;2.33;;
17596;SDS011;8917;50.942;6.946;2023-08-08T13:49:36;4.73;;;2.30;;
17596;SDS011;8917;50.942;6.946;2023-08-08T13:52:03;5.13;;;2.40;;
17596;SDS011;8917;50.942;6.946;2023-08-08T13:54:30;3.97;;;1.80;;
17596;SDS011;8917;50.942;6.946;2023-08-08T13:56:59;6.07;;;2.20;;
17596;SDS011;8917;50.942;6.946;2023-08-08T13:59:26;3.23;;;2.30;;
17596;SDS011;8917;50.942;6.946;2023-08-08T14:01:53;4.83;;;2.10;;
17596;SDS011;8917;50.942;6.946;2023-08-08T14:04:20;6.77;;;2.57;;
17596;SDS011;8917;50.942;6.946;2023-08-08T14:06:48;6.00;;;2.00;;
17596;SDS011;8917;50.942;6.946;2023-08-08T14:09:15;6.37;;;2.30;;
17596;SDS011;8917;50.942;6.946;2023-08-08T14:11:43;4.50;;;2.30;;
17596;SDS011;8917;50.942;6.946;2023-08-08T14:14:11;4.00;;;2.03;;
17596;SDS011;8917;50.942;6.946;2023-08-08T14:16:38;3.70;;;2.30;;
17596;SDS011;8917;50.942;6.946;2023-08-08T14:19:06;4.77;;;2.43;;
17596;SDS011;8917;50.942;6.946;2023-08-08T14:21:33;3.17;;;2.00;;
17596;SDS011;8917;50.942;6.946;2023-08-08T14:24:00;6.10;;;2.23;;
17596;SDS011;8917;50.942;6.946;2023-08-08T14:26:28;5.90;;;2.40;;
17596;SDS011;8917;50.942;6.946;2023-08-08T14:28:56;4.70;;;2.20;;
17596;SDS011;8917;50.942;6.946;2023-08-08T14:31:25;7.43;;;2.27;;
17596;SDS011;8917;50.942;6.946;2023-08-08T14:33:52;4.77;;;2.77;;
17596;SDS011;8917;50.942;6.946;2023-08-08T14:36:19;5.40;;;1.90;;
17596;SDS011;8917;50.942;6.946;2023-08-08T14:38:46;6.83;;;2.40;;
17596;SDS011;8917;50.942;6.946;2023-08-08T14:41:14;4.20;;;1.90;;
17596;SDS011;8917;50.942;6.946;2023-08-08T14:43:41;4.43;;;1.90;;
17596;SDS011;8917;50.942;6.946;2023-08-08T14:46:08;5.37;;;2.30;;
17596;SDS011;8917;50.942;6.946;2023-08-08T14:48:36;6.53;;;2.50;;
17596;SDS011;8917;50.942;6.946;2023-08-08T14:51:04;5.70;;;2.20;;
17596;SDS011;8917;50.942;6.946;2023-08-08T14:53:31;7.33;;;1.93;;
17596;SDS011;8917;50.942;6.946;2023-08-08T14:55:58;8.23;;;2.30;;
17596;SDS011;8917;50.942;6.946;2023-08-08T14:58:25;9.03;;;2.27;;
17596;SDS011;8917;50.942;6.946;2023-08-08T15:00:52;5.77;;;1.87;;
17596;SDS011;8917;50.942;6.946;2023-08-08T15:03:20;3.77;;;2.23;;